Time;durP1;ratioP1;P1;durP2;ratioP2;P2;SDS_P1;SDS_P2;PMS_P1;PMS_P2;Temp;Humidity;BMP_temperature;BMP_pressure;BME280_temperature;BME280_humidity;BME280_pressure;Samples;Min_cycle;Max_cycle;Signal;HPM_P1;HPM_P2
2022/10/04 00:02:23;;;;;;;16.55;9.98;;;;;;;10.97;100.00;102297.53;5111405;28;20042;-85
2022/10/04 00:05:05;;;;;;;16.33;9.70;;;;;;;10.94;100.00;102292.44;5110559;28;20498;-85
2022/10/04 00:07:39;;;;;;;18.88;9.88;;;;;;;10.94;100.00;102292.44;5109951;28;20138;-85
2022/10/04 00:10:22;;;;;;;20.67;10.07;;;;;;;10.98;100.00;102300.09;5112929;28;20026;-85
2022/10/04 00:12:51;;;;;;;19.35;10.48;;;;;;;11.00;100.00;102294.75;5111080;28;20395;-86
2022/10/04 00:15:21;;;;;;;17.23;10.13;;;;;;;11.01;100.00;102291.16;5112208;28;20387;-85
2022/10/04 00:18:18;;;;;;;19.52;10.60;;;;;;;11.01;100.00;102285.91;5111581;28;20102;-85
2022/10/04 00:20:49;;;;;;;16.98;9.88;;;;;;;10.94;100.00;102281.91;5110718;28;20023;-85
2022/10/04 00:23:23;;;;;;;17.25;10.10;;;;;;;10.94;100.00;102280.13;5111735;28;20118;-85
2022/10/04 00:25:58;;;;;;;19.92;9.50;;;;;;;10.91;100.00;102279.44;5111003;28;20049;-85
2022/10/04 00:28:24;;;;;;;20.00;10.43;;;;;;;10.89;100.00;102268.13;5110511;28;20066;-85
2022/10/04 00:31:05;;;;;;;17.45;10.85;;;;;;;10.91;100.00;102268.91;5112344;28;20047;-85
2022/10/04 00:33:51;;;;;;;15.85;10.18;;;;;;;10.92;100.00;102271.44;5110906;28;20028;-85
2022/10/04 00:36:22;;;;;;;15.70;9.10;;;;;;;10.82;100.00;102270.22;5109958;28;20043;-85
2022/10/04 00:39:02;;;;;;;16.73;9.57;;;;;;;10.81;100.00;102262.41;5111867;28;20099;-85
2022/10/04 00:41:47;;;;;;;14.45;9.70;;;;;;;10.79;100.00;102256.34;5109101;28;20106;-85
2022/10/04 00:44:41;;;;;;;14.45;9.95;;;;;;;10.80;100.00;102260.69;5109261;28;20436;-85
2022/10/04 00:47:31;;;;;;;15.70;9.85;;;;;;;10.75;100.00;102273.22;5109014;28;20032;-85
2022/10/04 00:50:08;;;;;;;17.17;10.02;;;;;;;10.64;100.00;102272.00;5111114;27;20035;-85
2022/10/04 00:52:41;;;;;;;16.40;9.60;;;;;;;10.58;100.00;102266.22;5111429;28;20034;-86
2022/10/04 00:55:08;;;;;;;12.68;9.52;;;;;;;10.52;100.00;102266.53;5110364;28;20437;-86
2022/10/04 00:57:46;;;;;;;21.70;9.90;;;;;;;10.51;100.00;102263.06;5110749;28;20107;-85
2022/10/04 01:00:15;;;;;;;14.70;9.57;;;;;;;10.46;100.00;102266.84;5108969;28;20427;-85
2022/10/04 01:02:41;;;;;;;14.93;9.30;;;;;;;10.44;100.00;102248.50;5111099;28;20028;-86
2022/10/04 01:05:18;;;;;;;15.15;9.70;;;;;;;10.44;100.00;102253.78;5109206;28;20020;-86
2022/10/04 01:07:47;;;;;;;20.08;10.65;;;;;;;10.52;100.00;102240.22;5110746;28;20072;-86
2022/10/04 01:10:27;;;;;;;15.88;10.25;;;;;;;10.52;100.00;102241.06;5108591;28;20027;-85
2022/10/04 01:13:14;;;;;;;18.85;10.85;;;;;;;10.53;100.00;102232.25;5109882;28;20031;-85
2022/10/04 01:15:52;;;;;;;16.42;10.35;;;;;;;10.49;100.00;102224.59;5108984;28;20023;-85
2022/10/04 01:18:17;;;;;;;18.48;10.82;;;;;;;10.50;100.00;102221.88;5109580;28;20448;-85
2022/10/04 01:20:53;;;;;;;21.35;11.60;;;;;;;10.46;100.00;102230.88;5111071;28;20106;-85
2022/10/04 01:23:37;;;;;;;21.70;11.68;;;;;;;10.48;100.00;102226.38;5109830;28;20068;-85
2022/10/04 01:26:25;;;;;;;20.02;10.90;;;;;;;10.46;100.00;102230.88;5111303;28;20412;-85
2022/10/04 01:28:51;;;;;;;17.45;10.65;;;;;;;10.43;100.00;102220.50;5111248;28;20032;-85
2022/10/04 01:31:17;;;;;;;16.30;10.98;;;;;;;10.39;100.00;102213.66;5108351;28;20441;-85
2022/10/04 01:33:42;;;;;;;16.10;10.98;;;;;;;10.30;100.00;102209.72;5109453;28;20023;-85
2022/10/04 01:36:07;;;;;;;18.08;10.75;;;;;;;10.28;100.00;102221.25;5110641;28;20506;-85
2022/10/04 01:38:33;;;;;;;15.32;11.07;;;;;;;10.26;100.00;102220.50;5109776;28;20077;-85
2022/10/04 01:41:01;;;;;;;14.30;9.68;;;;;;;10.21;100.00;102219.88;5110927;28;20162;-85
2022/10/04 01:43:34;;;;;;;16.17;10.45;;;;;;;10.14;100.00;102213.19;5108313;28;20044;-89
2022/10/04 01:46:07;;;;;;;15.80;10.75;;;;;;;10.10;100.00;102212.50;5110596;28;20024;-85
2022/10/04 01:48:36;;;;;;;14.23;11.32;;;;;;;10.13;100.00;102206.22;5110543;28;20073;-85
2022/10/04 01:51:12;;;;;;;15.75;10.70;;;;;;;10.10;100.00;102212.50;5109326;28;20035;-85
2022/10/04 01:53:53;;;;;;;20.10;11.52;;;;;;;10.11;100.00;102215.97;5108735;28;20011;-85
2022/10/04 01:56:22;;;;;;;18.60;11.48;;;;;;;10.04;100.00;102208.41;5109446;28;20395;-85
2022/10/04 01:58:51;;;;;;;16.80;11.52;;;;;;;10.05;100.00;102207.47;5109476;28;20024;-85
2022/10/04 02:01:30;;;;;;;16.50;11.57;;;;;;;10.11;100.00;102202.81;5109175;28;20113;-85
2022/10/04 02:04:14;;;;;;;17.35;11.63;;;;;;;10.05;100.00;102201.38;5109575;28;20028;-86
2022/10/04 02:06:42;;;;;;;15.68;11.80;;;;;;;10.01;100.00;102202.44;5108103;28;20073;-85
2022/10/04 02:09:22;;;;;;;17.05;11.88;;;;;;;10.04;100.00;102192.63;5109833;28;20031;-85
2022/10/04 02:11:52;;;;;;;13.07;11.02;;;;;;;9.97;100.00;102196.47;5108031;28;20384;-85
2022/10/04 02:14:21;;;;;;;17.90;11.60;;;;;;;10.01;100.00;102187.53;5109370;28;20035;-85
2022/10/04 02:16:52;;;;;;;18.50;12.48;;;;;;;9.99;100.00;102189.34;5109739;28;20414;-85
2022/10/04 02:19:22;;;;;;;21.80;12.25;;;;;;;9.93;100.00;102173.88;5107074;28;20020;-85
2022/10/04 02:21:49;;;;;;;17.02;12.00;;;;;;;9.86;100.00;102169.84;5109844;28;20028;-86
2022/10/04 02:24:15;;;;;;;19.88;12.80;;;;;;;9.90;100.00;102170.56;5110276;28;20031;-86
2022/10/04 02:26:41;;;;;;;19.60;13.32;;;;;;;9.90;100.00;102162.66;5113982;28;20601;-86
2022/10/04 02:29:11;;;;;;;19.02;11.95;;;;;;;9.89;100.00;102153.94;5113191;28;20122;-86
2022/10/04 02:34:22;;;;;;;20.10;12.57;;;;;;;9.88;100.00;102140.88;5113464;28;20118;-86
2022/10/04 02:36:50;;;;;;;21.85;13.85;;;;;;;9.88;100.00;102139.09;5113274;28;20011;-86
2022/10/04 02:39:39;;;;;;;23.25;13.60;;;;;;;9.90;100.00;102131.13;5113715;28;20027;-86
2022/10/04 02:42:26;;;;;;;20.58;12.90;;;;;;;9.87;100.00;102134.75;5113193;28;20066;-86
2022/10/04 02:45:08;;;;;;;22.45;13.70;;;;;;;9.82;100.00;102136.78;5114329;28;20067;-86
2022/10/04 02:47:46;;;;;;;20.40;13.00;;;;;;;9.82;100.00;102121.00;5113610;28;20015;-86
2022/10/04 02:50:48;;;;;;;19.23;13.13;;;;;;;9.87;100.00;102116.34;5113810;28;20023;-86
2022/10/04 02:53:23;;;;;;;21.08;12.88;;;;;;;9.77;100.00;102109.03;5096083;28;20605;-86
2022/10/04 02:55:49;;;;;;;20.63;12.82;;;;;;;9.75;100.00;102106.47;5112110;28;20228;-86
2022/10/04 02:58:18;;;;;;;21.08;13.65;;;;;;;9.72;100.00;102096.13;5113080;28;20228;-86
2022/10/04 03:00:57;;;;;;;21.17;13.93;;;;;;;9.66;100.00;102097.28;5107409;28;20024;-85
2022/10/04 03:03:28;;;;;;;23.83;13.95;;;;;;;9.70;100.00;102095.34;5092754;28;20028;-86
2022/10/04 03:06:03;;;;;;;22.70;14.73;;;;;;;9.62;100.00;102087.00;5091667;28;20216;-86
2022/10/04 03:08:33;;;;;;;19.73;13.68;;;;;;;9.58;100.00;102083.66;5091790;28;20035;-86
2022/10/04 03:11:01;;;;;;;20.40;14.77;;;;;;;9.60;100.00;102087.03;5091394;28;20055;-85
2022/10/04 03:13:28;;;;;;;21.58;14.05;;;;;;;9.55;100.00;102093.47;5091317;28;20024;-89
2022/10/04 03:15:53;;;;;;;22.42;14.80;;;;;;;9.57;100.00;102086.34;5090731;28;20234;-86
2022/10/04 03:18:19;;;;;;;21.33;14.30;;;;;;;9.56;100.00;102089.91;5092156;28;20016;-86
2022/10/04 03:20:46;;;;;;;21.48;14.68;;;;;;;9.56;100.00;102089.91;5105982;28;20023;-86
2022/10/04 03:23:16;;;;;;;22.25;15.48;;;;;;;9.53;100.00;102088.28;5111773;27;20459;-87
2022/10/04 03:25:49;;;;;;;19.83;14.75;;;;;;;9.53;100.00;102079.56;5112649;28;20028;-86
2022/10/04 03:28:16;;;;;;;21.08;15.02;;;;;;;9.47;100.00;102082.47;5113263;28;20019;-87
2022/10/04 03:30:46;;;;;;;22.77;15.55;;;;;;;9.48;100.00;102081.56;5118778;28;20034;-86
2022/10/04 03:33:21;;;;;;;19.17;15.25;;;;;;;9.48;100.00;102079.78;5122971;28;20043;-86
2022/10/04 03:35:50;;;;;;;20.33;15.32;;;;;;;9.43;100.00;102069.50;5123665;28;20011;-86
2022/10/04 03:38:17;;;;;;;24.48;15.77;;;;;;;9.46;100.00;102068.50;5122370;28;20027;-86
2022/10/04 03:40:50;;;;;;;24.90;15.98;;;;;;;9.41;100.00;102060.84;5119641;28;20032;-86
2022/10/04 03:43:16;;;;;;;20.85;14.68;;;;;;;9.40;100.00;102059.16;5115085;28;20503;-87
2022/10/04 03:45:42;;;;;;;19.98;13.73;;;;;;;9.35;100.00;102060.31;5102312;28;20135;-88
2022/10/04 03:48:11;;;;;;;28.98;15.27;;;;;;;9.31;100.00;102062.25;5092287;28;20464;-87
2022/10/04 03:50:45;;;;;;;24.98;14.73;;;;;;;9.27;100.00;102058.06;5090555;28;20023;-87
2022/10/04 03:53:23;;;;;;;20.00;14.23;;;;;;;9.30;100.00;102055.28;5092551;28;20483;-87
2022/10/04 03:55:48;;;;;;;19.83;14.95;;;;;;;9.32;100.00;102056.06;5092634;28;20024;-87
2022/10/04 03:58:17;;;;;;;17.70;14.27;;;;;;;9.26;100.00;102047.63;5090161;28;20032;-87
2022/10/04 04:00:56;;;;;;;22.67;14.25;;;;;;;9.24;100.00;102047.72;5094185;28;20463;-87
2022/10/04 04:03:21;;;;;;;22.02;14.13;;;;;;;9.20;100.00;102048.75;5111959;28;20478;-86
2022/10/04 04:05:53;;;;;;;21.17;14.60;;;;;;;9.21;100.00;102047.00;5109800;28;20047;-87
2022/10/04 04:08:28;;;;;;;23.65;14.75;;;;;;;9.20;100.00;102046.13;5111421;28;20023;-87
2022/10/04 04:11:01;;;;;;;22.30;14.35;;;;;;;9.15;100.00;102050.75;5111956;28;20020;-87
2022/10/04 04:13:26;;;;;;;;;;;;;;;9.29;100.00;102053.59;5109754;28;20062;-87
2022/10/04 04:16:01;;;;;;;21.30;13.55;;;;;;;9.14;100.00;102050.84;5111899;28;19950;-86
2022/10/04 04:18:31;;;;;;;18.55;13.77;;;;;;;9.15;100.00;102050.75;5109275;28;20072;-88
2022/10/04 04:21:00;;;;;;;19.85;14.32;;;;;;;9.10;100.00;102048.38;5095129;28;20023;-88
2022/10/04 04:23:31;;;;;;;23.05;14.48;;;;;;;9.07;100.00;102048.50;5089870;28;20432;-87
2022/10/04 04:26:13;;;;;;;21.80;14.00;;;;;;;9.08;100.00;102052.00;5088910;28;20028;-87
2022/10/04 04:28:47;;;;;;;19.17;14.43;;;;;;;9.07;100.00;102048.50;5091413;28;20468;-88
2022/10/04 04:31:25;;;;;;;23.55;14.57;;;;;;;9.10;100.00;102052.75;5090749;28;20024;-87
2022/10/04 04:34:02;;;;;;;22.45;14.68;;;;;;;9.05;100.00;102053.00;5090740;28;20020;-87
2022/10/04 04:36:40;;;;;;;21.60;13.73;;;;;;;9.02;100.00;102052.28;5090254;28;20097;-87
2022/10/04 04:39:33;;;;;;;18.33;13.70;;;;;;;8.98;100.00;102046.34;5089995;28;20106;-87
2022/10/04 04:42:10;;;;;;;23.45;13.50;;;;;;;8.98;100.00;102042.88;5091111;28;20054;-87
2022/10/04 04:45:00;;;;;;;17.50;13.55;;;;;;;8.98;100.00;102045.50;5091316;28;20051;-87
2022/10/04 04:47:28;;;;;;;21.30;14.32;;;;;;;8.92;100.00;102041.38;5088934;28;20506;-87
2022/10/04 04:50:02;;;;;;;22.17;13.95;;;;;;;8.90;100.00;102031.88;5090052;28;20611;-87
2022/10/04 04:52:28;;;;;;;18.40;14.55;;;;;;;8.86;100.00;102031.19;5090253;28;20024;-88
2022/10/04 04:54:57;;;;;;;21.80;14.93;;;;;;;8.86;100.00;102022.47;5090955;28;20487;-87
2022/10/04 04:57:23;;;;;;;23.60;13.85;;;;;;;8.87;100.00;102024.16;5090308;28;20501;-87
2022/10/04 04:59:56;;;;;;;24.92;14.38;;;;;;;8.85;100.00;102026.00;5089727;28;20065;-87
2022/10/04 05:02:36;;;;;;;18.67;14.10;;;;;;;8.86;100.00;102019.84;5090053;28;20038;-87
2022/10/04 05:05:26;;;;;;;17.33;13.15;;;;;;;8.84;100.00;102024.31;5089658;28;20023;-87
2022/10/04 05:08:22;;;;;;;20.95;13.20;;;;;;;8.84;100.00;102032.19;5089066;28;20024;-87
2022/10/04 05:10:54;;;;;;;23.55;13.50;;;;;;;8.81;100.00;102034.97;5089645;28;20035;-88
2022/10/04 05:13:20;;;;;;;21.83;13.90;;;;;;;8.77;100.00;102027.22;5088641;28;20078;-88
2022/10/04 05:15:52;;;;;;;20.55;13.45;;;;;;;8.82;100.00;102034.88;5088640;28;20434;-88
2022/10/04 05:18:29;;;;;;;22.58;14.45;;;;;;;8.77;100.00;102034.22;5090388;28;20475;-88
2022/10/04 05:21:01;;;;;;;20.77;13.98;;;;;;;8.72;100.00;102034.44;5103955;28;20383;-88
2022/10/04 05:23:27;;;;;;;21.42;13.18;;;;;;;8.78;100.00;102033.31;5109741;28;20027;-88
2022/10/04 05:25:52;;;;;;;22.35;12.95;;;;;;;8.75;100.00;102029.06;5108925;28;20026;-88
2022/10/04 05:28:18;;;;;;;19.55;12.50;;;;;;;8.71;100.00;102032.75;5109910;28;20130;-87
2022/10/04 05:31:03;;;;;;;20.02;12.57;;;;;;;8.71;100.00;102022.25;5110232;28;20019;-88
2022/10/04 05:33:48;;;;;;;21.42;12.13;;;;;;;8.72;100.00;102029.19;5110454;28;20387;-88
2022/10/04 05:36:35;;;;;;;20.38;12.52;;;;;;;8.66;100.00;102024.25;5109607;28;20123;-88
2022/10/04 05:39:08;;;;;;;17.10;11.73;;;;;;;8.71;100.00;102026.66;5109622;28;20114;-88
2022/10/04 05:41:39;;;;;;;18.65;11.98;;;;;;;8.61;100.00;102031.47;5109650;28;20076;-88
2022/10/04 05:44:26;;;;;;;16.90;11.63;;;;;;;8.65;100.00;102042.69;5110055;28;20039;-88
2022/10/04 05:46:58;;;;;;;19.50;11.65;;;;;;;8.64;100.00;102036.59;5110930;28;20118;-88
2022/10/04 05:49:27;;;;;;;18.50;11.77;;;;;;;8.62;100.00;102033.19;5109147;28;20364;-88
2022/10/04 05:52:02;;;;;;;17.95;10.77;;;;;;;8.65;100.00;102033.03;5110518;28;20379;-88
2022/10/04 05:54:32;;;;;;;16.52;11.27;;;;;;;8.64;100.00;102040.97;5110424;28;20031;-89
2022/10/04 05:57:47;;;;;;;20.58;10.93;;;;;;;8.68;100.00;102048.63;5108134;28;20069;-88
2022/10/04 06:00:19;;;;;;;15.00;10.65;;;;;;;8.65;100.00;102054.03;5107259;28;20034;-88
2022/10/04 06:02:56;;;;;;;19.55;11.20;;;;;;;8.66;100.00;102050.47;5110453;28;20034;-88
2022/10/04 06:05:37;;;;;;;18.08;10.50;;;;;;;8.63;100.00;102055.03;5108571;28;20024;-88
2022/10/04 06:08:34;;;;;;;16.40;10.07;;;;;;;8.64;100.00;102041.84;5109344;28;20490;-88
2022/10/04 06:11:23;;;;;;;20.30;11.05;;;;;;;8.71;100.00;102043.25;5109278;28;20510;-89
2022/10/04 06:14:10;;;;;;;17.88;10.80;;;;;;;8.72;100.00;102050.19;5109746;28;20119;-89
2022/10/04 06:17:10;;;;;;;25.23;11.20;;;;;;;8.75;100.00;102054.44;5110287;28;20491;-89
2022/10/04 06:19:54;;;;;;;17.05;10.13;;;;;;;8.78;100.00;102055.16;5109547;28;20020;-89
2022/10/04 06:22:21;;;;;;;14.85;10.02;;;;;;;8.76;100.00;102051.75;5089204;28;20090;-89
2022/10/04 06:24:59;;;;;;;16.90;10.40;;;;;;;8.76;100.00;102043.03;5087710;28;20028;-87
2022/10/04 06:28:12;;;;;;;16.70;9.75;;;;;;;8.83;100.00;102051.47;5089822;28;20028;-87
2022/10/04 06:31:17;;;;;;;15.70;9.52;;;;;;;8.86;100.00;102053.97;5089802;28;20028;-89
2022/10/04 06:33:45;;;;;;;25.83;10.15;;;;;;;8.81;100.00;102048.94;5088809;28;20020;-89
2022/10/04 06:36:36;;;;;;;14.85;9.20;;;;;;;8.86;100.00;102044.31;5088244;28;20028;-89
2022/10/04 06:39:40;;;;;;;15.18;8.93;;;;;;;8.91;100.00;102047.56;5089983;28;20185;-90
2022/10/04 06:42:22;;;;;;;16.15;9.25;;;;;;;8.93;100.00;102037.00;5090976;28;20028;-89
2022/10/04 06:45:29;;;;;;;17.38;9.07;;;;;;;8.96;100.00;102039.47;5090158;28;20067;-89
2022/10/04 06:48:05;;;;;;;13.77;8.48;;;;;;;8.91;100.00;102042.31;5080167;28;20126;-89
2022/10/04 06:50:54;;;;;;;15.48;8.80;;;;;;;8.94;100.00;102041.31;5088339;28;20032;-86
2022/10/04 06:53:31;;;;;;;13.65;8.63;;;;;;;8.91;100.00;102039.69;5087447;28;20426;-86
2022/10/04 06:56:08;;;;;;;13.90;9.25;;;;;;;8.92;100.00;102051.03;5090344;28;20042;-86
2022/10/04 06:59:14;;;;;;;14.88;8.57;;;;;;;8.94;100.00;102047.41;5089969;28;20040;-86
2022/10/04 07:02:11;;;;;;;15.25;8.38;;;;;;;8.98;100.00;102041.09;5088283;28;20024;-86
2022/10/04 07:04:54;;;;;;;12.93;7.80;;;;;;;8.97;100.00;102043.78;5089965;28;20072;-90
2022/10/04 07:07:37;;;;;;;14.82;8.25;;;;;;;8.98;100.00;102042.88;5088990;28;20574;-89
2022/10/04 07:10:18;;;;;;;17.60;8.65;;;;;;;8.98;100.00;102032.38;5088085;28;20045;-89
2022/10/04 07:13:25;;;;;;;16.05;8.50;;;;;;;9.03;100.00;102033.00;5091669;28;20060;-89
2022/10/04 07:16:07;;;;;;;20.63;8.90;;;;;;;9.09;100.00;102032.69;5085229;28;20553;-90
2022/10/04 07:18:53;;;;;;;16.23;8.63;;;;;;;9.17;100.00;102043.66;5091560;28;20028;-90
2022/10/04 07:21:20;;;;;;;14.73;8.60;;;;;;;9.27;100.00;102025.69;5107776;28;20031;-89
2022/10/04 07:24:00;;;;;;;14.73;8.27;;;;;;;9.39;100.00;102020.69;5113221;28;20443;-85
2022/10/04 07:26:45;;;;;;;18.60;8.93;;;;;;;9.51;100.00;102021.81;5113030;28;20028;-89
2022/10/04 07:29:26;;;;;;;16.65;8.75;;;;;;;9.56;100.00;102027.69;5112219;28;20428;-89
2022/10/04 07:32:04;;;;;;;14.63;8.45;;;;;;;9.68;100.00;102037.59;5111668;28;20407;-89
2022/10/04 07:34:42;;;;;;;19.40;9.15;;;;;;;9.77;100.00;102031.03;5111912;28;20031;-85
2022/10/04 07:37:12;;;;;;;16.27;8.45;;;;;;;9.83;100.00;102030.69;5111590;28;20026;-89
2022/10/04 07:40:28;;;;;;;23.63;9.27;;;;;;;9.94;100.00;102040.66;5112006;28;20023;-89
2022/10/04 07:42:59;;;;;;;14.35;8.88;;;;;;;10.03;100.00;102048.09;5067388;28;20052;-89
2022/10/04 07:45:28;;;;;;;16.98;9.90;;;;;;;10.14;100.00;102037.84;5112920;28;20107;-89
2022/10/04 07:48:14;;;;;;;17.60;9.07;;;;;;;10.22;100.00;102043.56;5113359;28;20036;-89
2022/10/04 07:51:00;;;;;;;12.70;8.57;;;;;;;10.30;100.00;102037.88;5112483;27;20023;-89
2022/10/04 07:53:38;;;;;;;18.23;8.00;;;;;;;10.40;100.00;102028.56;5113474;28;20148;-88
2022/10/04 07:56:12;;;;;;;12.93;8.98;;;;;;;10.49;100.00;102030.72;5112129;28;20020;-88
2022/10/04 07:58:56;;;;;;;19.63;9.07;;;;;;;10.62;100.00;102026.47;5113018;28;20444;-88
2022/10/04 08:02:01;;;;;;;12.40;8.73;;;;;;;10.74;100.00;102019.66;5111347;28;20024;-88
2022/10/04 08:04:28;;;;;;;14.55;8.93;;;;;;;10.85;100.00;102019.09;5111988;28;20039;-88
2022/10/04 08:07:04;;;;;;;16.77;8.50;;;;;;;10.99;100.00;102029.69;5111715;28;20621;-88
2022/10/04 08:09:32;;;;;;;20.40;8.68;;;;;;;11.10;100.00;102019.38;5111943;28;20352;-88
2022/10/04 08:12:01;;;;;;;16.80;9.20;;;;;;;11.25;100.00;102021.16;5110932;28;20034;-87
2022/10/04 08:14:49;;;;;;;16.40;8.80;;;;;;;11.40;99.44;102018.53;5112604;28;20023;-86
2022/10/04 08:17:46;;;;;;;17.00;8.85;;;;;;;11.53;99.41;102007.19;5110073;28;20092;-87
2022/10/04 08:20:30;;;;;;;11.57;7.80;;;;;;;11.70;98.62;102008.81;5101797;28;20047;-86
2022/10/04 08:23:23;;;;;;;15.88;8.48;;;;;;;11.88;97.16;102015.66;5090774;28;20499;-87
2022/10/04 08:26:20;;;;;;;17.17;7.82;;;;;;;12.04;95.40;102009.44;5108582;28;20160;-86
2022/10/04 08:32:19;;;;;;;13.30;7.32;;;;;;;12.42;93.04;102009.72;5112427;28;20042;-86
2022/10/04 08:35:11;;;;;;;14.73;7.60;;;;;;;12.46;90.87;102019.97;5110399;28;20054;-88
2022/10/04 08:37:37;;;;;;;14.32;7.05;;;;;;;12.44;90.90;102019.22;5111928;28;20438;-87
2022/10/04 08:40:32;;;;;;;13.98;7.82;;;;;;;12.50;91.36;102023.25;5110845;28;20130;-87
2022/10/04 08:43:38;;;;;;;11.93;7.05;;;;;;;12.62;91.37;102019.00;5111638;28;20043;-88
2022/10/04 08:46:39;;;;;;;11.90;7.25;;;;;;;12.76;90.67;102014.50;5113164;28;20067;-88
2022/10/04 08:49:40;;;;;;;12.45;7.68;;;;;;;12.97;90.76;102017.56;5112409;28;20031;-87
2022/10/04 08:52:36;;;;;;;12.82;7.45;;;;;;;13.18;88.79;102025.91;5112337;28;20035;-88
2022/10/04 08:55:10;;;;;;;18.00;7.95;;;;;;;13.37;87.41;102014.97;5110677;28;20031;-87
2022/10/04 08:58:03;;;;;;;12.25;7.40;;;;;;;13.55;87.59;102019.00;5112153;28;20019;-87
2022/10/04 09:00:49;;;;;;;15.65;7.93;;;;;;;13.74;87.33;102016.81;5109485;28;20796;-88
2022/10/04 09:03:34;;;;;;;12.68;7.53;;;;;;;13.90;84.84;102018.41;5111714;28;20027;-88
2022/10/04 09:06:29;;;;;;;13.40;7.82;;;;;;;14.04;84.02;102018.31;5111467;28;20031;-86
2022/10/04 09:09:21;;;;;;;16.05;7.40;;;;;;;14.20;83.77;102024.22;5111600;28;20553;-86
2022/10/04 09:12:14;;;;;;;13.30;7.40;;;;;;;14.31;83.94;102020.78;5110787;28;20027;-87
2022/10/04 09:14:50;;;;;;;13.35;7.57;;;;;;;14.45;83.91;102033.94;5111037;28;20031;-88
2022/10/04 09:18:00;;;;;;;11.32;7.07;;;;;;;14.64;83.08;102021.06;5109992;28;20354;-86
2022/10/04 09:20:48;;;;;;;13.85;7.38;;;;;;;14.83;80.97;102020.59;5091166;28;20090;-86
2022/10/04 09:23:29;;;;;;;12.88;7.00;;;;;;;14.92;81.00;102021.72;5108952;28;20039;-87
2022/10/04 09:25:58;;;;;;;12.43;7.35;;;;;;;14.98;78.19;102019.47;5111499;28;20426;-87
2022/10/04 09:28:45;;;;;;;14.63;6.65;;;;;;;14.91;78.38;102007.63;5108662;28;20104;-87
2022/10/04 09:31:48;;;;;;;16.80;7.07;;;;;;;15.13;79.07;102008.66;5108968;28;20400;-87
2022/10/04 09:34:27;;;;;;;13.68;6.13;;;;;;;15.16;75.44;102011.09;5109895;28;20062;-87
2022/10/04 09:37:10;;;;;;;11.05;6.15;;;;;;;15.17;76.59;102002.16;5097032;28;20020;-88
2022/10/04 09:39:48;;;;;;;;;;;;;;;15.32;81.44;101995.72;5111719;28;20023;-87
2022/10/04 09:42:31;;;;;;;13.75;6.20;;;;;;;15.51;77.38;101995.16;5108461;28;19911;-87
2022/10/04 09:45:06;;;;;;;14.45;5.78;;;;;;;15.58;75.62;101993.75;5095331;28;20055;-86
2022/10/04 09:47:39;;;;;;;15.40;6.00;;;;;;;15.72;75.64;101982.94;5089024;28;20071;-87
2022/10/04 09:50:43;;;;;;;11.25;5.68;;;;;;;15.75;74.67;101987.19;5087379;28;20038;-87
2022/10/04 09:53:30;;;;;;;10.43;5.35;;;;;;;15.82;76.46;101999.84;5027778;28;20033;-86
2022/10/04 09:56:03;;;;;;;11.52;5.70;;;;;;;15.80;73.97;101995.63;5046995;28;20033;-87
2022/10/04 09:59:00;;;;;;;10.45;5.95;;;;;;;15.84;74.26;102002.38;5088614;28;20084;-87
2022/10/04 10:01:58;;;;;;;14.75;6.70;;;;;;;15.81;73.68;101997.31;5109789;28;20399;-86
2022/10/04 10:04:51;;;;;;;10.23;6.22;;;;;;;15.84;73.82;101999.72;5108261;28;20444;-84
2022/10/04 10:07:35;;;;;;;14.38;6.82;;;;;;;15.78;72.07;101994.91;5109007;28;20493;-87
2022/10/04 10:13:39;;;;;;;8.98;6.03;;;;;;;16.01;73.89;101988.66;5110578;28;20057;-86
2022/10/04 10:16:29;;;;;;;11.65;6.15;;;;;;;16.17;72.76;101990.94;5109103;28;20020;-85
2022/10/04 10:18:58;;;;;;;10.35;5.80;;;;;;;16.31;72.41;101985.34;5108947;28;20024;-85
2022/10/04 10:21:33;;;;;;;10.80;6.30;;;;;;;16.36;72.60;101979.66;5109741;28;20031;-85
2022/10/04 10:24:31;;;;;;;12.05;6.30;;;;;;;16.41;73.32;101974.81;5109410;28;20051;-85
2022/10/04 10:27:28;;;;;;;9.40;5.78;;;;;;;16.45;75.42;101970.97;5103735;28;20024;-84
2022/10/04 10:30:18;;;;;;;10.63;5.68;;;;;;;16.56;71.23;101966.47;5105383;28;20048;-85
2022/10/04 10:33:21;;;;;;;12.65;5.43;;;;;;;16.69;72.79;101961.03;5088650;28;20024;-85
2022/10/04 10:35:57;;;;;;;14.07;5.28;;;;;;;16.78;70.97;101970.91;5089159;28;20089;-85
2022/10/04 10:38:48;;;;;;;13.07;5.38;;;;;;;16.65;70.43;101975.50;5088842;28;20024;-85
2022/10/04 10:41:47;;;;;;;11.60;6.00;;;;;;;16.60;70.79;101975.88;5087699;28;20027;-85
2022/10/04 10:44:50;;;;;;;10.93;5.20;;;;;;;16.75;71.05;101971.16;5050323;28;20134;-86
2022/10/04 10:47:34;;;;;;;7.57;4.80;;;;;;;16.83;68.24;101979.38;5060496;28;20040;-84
2022/10/04 10:50:24;;;;;;;11.85;4.97;;;;;;;16.89;70.11;101976.19;5109024;28;20024;-86
2022/10/04 10:53:28;;;;;;;11.57;4.60;;;;;;;16.97;70.95;101982.69;5092201;28;20119;-86
2022/10/04 10:56:12;;;;;;;10.18;4.50;;;;;;;16.89;68.26;101989.50;5109486;28;20501;-86
2022/10/04 10:58:43;;;;;;;12.73;4.93;;;;;;;16.69;68.09;101987.59;5093969;28;20395;-86
2022/10/04 11:01:30;;;;;;;9.60;5.03;;;;;;;16.65;70.49;101978.16;5093085;28;20032;-85
2022/10/04 11:04:14;;;;;;;10.02;4.72;;;;;;;16.75;70.15;101968.50;5109432;28;20498;-86
2022/10/04 11:07:19;;;;;;;11.68;4.55;;;;;;;16.85;71.07;101969.44;5093293;28;20111;-86
2022/10/04 11:10:05;;;;;;;13.10;4.88;;;;;;;16.99;69.52;101962.97;5109767;28;20024;-86
2022/10/04 11:12:58;;;;;;;7.80;4.15;;;;;;;17.18;69.74;101959.59;5093329;28;20481;-87
2022/10/04 11:15:30;;;;;;;9.45;4.10;;;;;;;17.28;66.99;101944.59;5093111;28;20024;-85
2022/10/04 11:18:14;;;;;;;7.90;4.50;;;;;;;17.26;66.27;101941.22;5110444;28;20024;-85
2022/10/04 11:20:48;;;;;;;9.52;4.55;;;;;;;17.40;66.89;101945.34;5110948;28;20027;-85
2022/10/04 11:23:38;;;;;;;11.40;4.70;;;;;;;17.52;67.84;101942.47;5112655;28;20058;-85
2022/10/04 11:26:25;;;;;;;8.82;4.50;;;;;;;17.60;68.22;101932.97;5111677;28;20059;-85
2022/10/04 11:29:28;;;;;;;9.18;4.18;;;;;;;17.67;66.36;101936.84;5111325;28;20023;-85
2022/10/04 11:31:59;;;;;;;7.38;4.20;;;;;;;17.66;65.02;101932.47;5113036;28;20024;-85
2022/10/04 11:34:24;;;;;;;6.50;3.80;;;;;;;17.79;66.81;101923.31;5110580;28;20249;-85
2022/10/04 11:37:04;;;;;;;11.07;3.92;;;;;;;17.91;66.69;101926.72;5112692;28;20065;-84
2022/10/04 11:40:11;;;;;;;8.88;4.00;;;;;;;18.01;66.22;101922.28;5112520;28;20118;-84
2022/10/04 11:42:37;;;;;;;7.35;3.80;;;;;;;18.04;63.34;101911.38;5056197;28;20049;-85
2022/10/04 11:45:20;;;;;;;9.07;3.67;;;;;;;18.27;64.32;101916.44;5111417;28;20023;-85
2022/10/04 11:48:12;;;;;;;9.95;3.75;;;;;;;18.26;64.90;101917.44;5111284;28;20023;-84
2022/10/04 11:50:47;;;;;;;10.68;3.80;;;;;;;18.31;61.47;101907.19;5113040;28;20149;-84
2022/10/04 11:53:24;;;;;;;5.93;3.00;;;;;;;18.27;61.38;101901.31;5112395;28;20028;-84
2022/10/04 11:56:21;;;;;;;6.20;2.78;;;;;;;18.30;61.41;101905.50;5111144;28;20027;-84
2022/10/04 11:59:05;;;;;;;6.93;3.13;;;;;;;18.23;63.40;101904.38;5111050;28;20027;-84
2022/10/04 12:02:12;;;;;;;7.65;3.15;;;;;;;18.16;62.46;101902.28;5112834;28;20051;-85
2022/10/04 12:05:19;;;;;;;7.55;3.25;;;;;;;18.08;63.32;101907.44;5113063;28;20023;-86
2022/10/04 12:08:20;;;;;;;9.48;3.55;;;;;;;18.03;63.38;101909.69;5083151;27;20035;-85
2022/10/04 12:11:14;;;;;;;5.45;2.85;;;;;;;17.98;61.12;101906.56;5112350;28;20483;-84
2022/10/04 12:13:48;;;;;;;5.13;2.70;;;;;;;17.88;61.27;101910.16;5111057;28;20123;-85
2022/10/04 12:16:51;;;;;;;8.65;3.10;;;;;;;18.06;62.11;101909.41;5112316;28;20020;-85
2022/10/04 12:19:28;;;;;;;5.65;3.10;;;;;;;18.05;60.49;101891.75;5111430;27;20043;-84
2022/10/04 12:22:19;;;;;;;5.72;2.80;;;;;;;18.09;60.71;101893.16;5107154;28;20484;-85